Time;durP1;ratioP1;P1;durP2;ratioP2;P2;SDS_P1;SDS_P2;PMS_P1;PMS_P2;Temp;Humidity;BMP_temperature;BMP_pressure;BME280_temperature;BME280_humidity;BME280_pressure;Samples;Min_cycle;Max_cycle;Signal;HPM_P1;HPM_P2
2023/06/16 00:01:31;;;;;;;10.95;9.88;;;15.90;99.90;;;;;;5134268;27;20038;-83
2023/06/16 00:03:58;;;;;;;15.98;14.38;;;15.80;99.90;;;;;;5151504;27;20066;-82
2023/06/16 00:06:29;;;;;;;16.33;14.77;;;15.80;99.90;;;;;;5151209;27;20034;-83
2023/06/16 00:08:56;;;;;;;18.02;16.55;;;15.70;99.90;;;;;;5169566;27;20046;-82
2023/06/16 00:11:22;;;;;;;15.52;13.93;;;15.70;99.90;;;;;;5169938;27;20448;-83
2023/06/16 00:13:50;;;;;;;14.85;13.48;;;15.60;99.90;;;;;;5150911;27;20038;-83
2023/06/16 00:16:19;;;;;;;15.70;14.30;;;15.60;99.90;;;;;;5150912;27;20045;-83
2023/06/16 00:18:46;;;;;;;20.00;18.30;;;15.60;99.90;;;;;;5151007;27;20716;-83
2023/06/16 00:21:14;;;;;;;17.08;15.40;;;15.60;99.90;;;;;;5170252;27;20109;-83
2023/06/16 00:23:40;;;;;;;18.85;17.25;;;15.60;99.90;;;;;;5170207;27;20102;-83
2023/06/16 00:26:06;;;;;;;20.52;18.65;;;15.50;99.90;;;;;;5150682;27;20053;-84
2023/06/16 00:28:32;;;;;;;16.88;15.50;;;15.40;99.90;;;;;;5150706;27;20530;-83
2023/06/16 00:30:59;;;;;;;16.20;14.77;;;15.30;99.90;;;;;;5151593;27;20043;-84
2023/06/16 00:33:25;;;;;;;15.00;13.07;;;15.30;99.90;;;;;;5151606;27;20083;-84
2023/06/16 00:35:50;;;;;;;18.67;17.10;;;15.30;99.90;;;;;;5134858;27;20034;-84
2023/06/16 00:38:16;;;;;;;14.57;13.18;;;15.30;99.90;;;;;;5151095;27;20038;-83
2023/06/16 00:40:41;;;;;;;17.75;16.35;;;15.20;99.90;;;;;;5150827;27;20042;-84
2023/06/16 00:43:07;;;;;;;18.42;16.85;;;15.10;99.90;;;;;;5155076;27;20026;-85
2023/06/16 00:45:33;;;;;;;19.05;17.35;;;15.10;99.90;;;;;;5161508;27;20121;-84
2023/06/16 00:48:00;;;;;;;17.48;15.68;;;15.10;99.90;;;;;;5155634;27;20080;-84
2023/06/16 00:50:27;;;;;;;19.73;18.02;;;15.10;99.90;;;;;;5151532;27;20045;-84
2023/06/16 00:52:53;;;;;;;18.35;15.93;;;15.10;99.90;;;;;;5134469;27;20033;-84
2023/06/16 00:55:21;;;;;;;21.40;19.50;;;15.10;99.90;;;;;;5150178;27;20102;-84
2023/06/16 00:57:49;;;;;;;19.92;18.23;;;15.00;99.90;;;;;;5137771;27;20043;-83
2023/06/16 01:00:15;;;;;;;24.88;22.70;;;15.00;99.90;;;;;;5137275;27;20026;-84
2023/06/16 01:02:40;;;;;;;17.45;15.77;;;15.00;99.90;;;;;;5154982;27;20059;-85
2023/06/16 01:05:08;;;;;;;19.90;18.08;;;15.00;99.90;;;;;;5173715;27;20547;-84
2023/06/16 01:08:11;;;;;;;22.85;20.92;;;15.00;99.90;;;;;;5136961;27;20172;-84
2023/06/16 01:11:06;;;;;;;19.67;17.55;;;14.90;99.90;;;;;;5153699;27;20083;-84
2023/06/16 01:13:54;;;;;;;25.38;23.38;;;14.90;99.90;;;;;;5154861;27;20067;-84
2023/06/16 01:16:28;;;;;;;21.90;19.88;;;14.90;99.90;;;;;;5140929;27;20054;-84
2023/06/16 01:18:54;;;;;;;;;;;14.90;99.90;;;;;;5154552;27;20221;-84
2023/06/16 01:22:00;;;;;;;22.45;20.20;;;14.90;99.90;;;;;;5137144;27;19925;-84
2023/06/16 01:24:27;;;;;;;19.35;17.80;;;14.90;99.90;;;;;;5172495;27;20046;-84
2023/06/16 01:26:55;;;;;;;19.75;17.92;;;15.00;99.90;;;;;;5154391;27;20105;-84
2023/06/16 01:29:23;;;;;;;19.92;17.70;;;14.90;99.90;;;;;;5154058;27;20113;-84
2023/06/16 01:31:57;;;;;;;17.48;16.05;;;14.90;99.90;;;;;;5154508;27;20045;-84
2023/06/16 01:34:23;;;;;;;18.33;16.52;;;14.90;99.90;;;;;;5137050;27;20361;-84
2023/06/16 01:36:49;;;;;;;18.40;16.80;;;14.90;99.90;;;;;;5137394;27;20529;-83
2023/06/16 01:39:17;;;;;;;19.00;17.25;;;14.90;99.90;;;;;;5155501;27;20057;-84
2023/06/16 01:41:44;;;;;;;17.20;15.63;;;14.90;99.90;;;;;;5162136;27;20037;-84
2023/06/16 01:44:10;;;;;;;16.83;15.23;;;14.80;99.90;;;;;;5142882;27;20471;-83
2023/06/16 01:46:37;;;;;;;18.80;17.20;;;14.80;99.90;;;;;;5155102;27;20086;-84
2023/06/16 01:49:04;;;;;;;17.33;15.82;;;14.70;99.90;;;;;;5137512;27;20038;-84
2023/06/16 01:51:30;;;;;;;18.85;17.05;;;14.70;99.90;;;;;;5136782;27;20034;-84
2023/06/16 01:53:56;;;;;;;18.13;16.60;;;14.70;99.90;;;;;;5172324;27;20401;-84
2023/06/16 01:56:22;;;;;;;16.80;15.30;;;14.60;99.90;;;;;;5136608;27;20049;-85
2023/06/16 01:58:49;;;;;;;18.55;16.85;;;14.50;99.90;;;;;;5135998;27;20034;-84
2023/06/16 02:01:30;;;;;;;16.52;14.93;;;14.60;99.90;;;;;;5172494;27;20370;-84
2023/06/16 02:04:17;;;;;;;20.42;18.58;;;14.60;99.90;;;;;;5154038;27;20566;-84
2023/06/16 02:06:48;;;;;;;20.25;18.52;;;14.50;99.90;;;;;;5172076;27;20058;-84
2023/06/16 02:09:16;;;;;;;20.73;18.95;;;14.50;99.90;;;;;;5152571;27;20064;-84
2023/06/16 02:11:43;;;;;;;16.73;15.02;;;14.40;99.90;;;;;;5136100;27;20038;-84
2023/06/16 02:14:09;;;;;;;19.17;17.52;;;14.40;99.90;;;;;;5172136;27;20049;-85
2023/06/16 02:16:42;;;;;;;17.58;16.10;;;14.40;99.90;;;;;;5171764;27;20091;-84
2023/06/16 02:19:09;;;;;;;25.08;23.02;;;14.30;99.90;;;;;;5171845;27;20045;-84
2023/06/16 02:21:36;;;;;;;22.10;20.27;;;14.30;99.90;;;;;;5172563;27;20038;-84
2023/06/16 02:24:03;;;;;;;21.70;19.73;;;14.30;99.90;;;;;;5153264;27;20070;-83
2023/06/16 02:26:28;;;;;;;18.83;17.13;;;14.20;99.90;;;;;;5153300;27;20042;-84
2023/06/16 02:28:55;;;;;;;20.13;18.48;;;14.10;99.90;;;;;;5152813;27;20042;-84
2023/06/16 02:31:20;;;;;;;18.88;17.27;;;14.10;99.90;;;;;;5136642;27;20042;-84
2023/06/16 02:33:50;;;;;;;21.35;19.55;;;14.10;99.90;;;;;;5172592;27;20041;-83
2023/06/16 02:36:17;;;;;;;20.90;19.10;;;14.10;99.90;;;;;;5159632;27;20054;-85
2023/06/16 02:38:43;;;;;;;20.52;18.83;;;14.00;99.90;;;;;;5180834;27;20106;-86
2023/06/16 02:41:09;;;;;;;23.45;21.38;;;14.00;99.90;;;;;;5154837;27;20461;-84
2023/06/16 02:43:34;;;;;;;18.63;16.65;;;14.00;99.90;;;;;;5153194;27;20117;-83
2023/06/16 02:46:01;;;;;;;19.83;18.00;;;14.00;99.90;;;;;;5135564;27;20049;-84
2023/06/16 02:48:27;;;;;;;23.05;20.92;;;14.00;99.90;;;;;;5152559;27;20537;-84
2023/06/16 02:50:53;;;;;;;21.67;19.75;;;14.00;99.90;;;;;;5152910;27;20491;-84
2023/06/16 02:53:19;;;;;;;21.02;19.25;;;14.00;99.90;;;;;;5152260;27;20059;-84
2023/06/16 02:55:48;;;;;;;20.70;18.83;;;14.00;99.90;;;;;;5171152;27;20041;-83
2023/06/16 02:58:14;;;;;;;22.35;20.13;;;14.00;99.90;;;;;;5152285;27;20038;-84
2023/06/16 03:00:40;;;;;;;21.98;20.20;;;14.00;99.90;;;;;;5152459;27;20105;-84
2023/06/16 03:03:07;;;;;;;21.60;19.63;;;14.00;99.90;;;;;;5152702;27;20050;-84
2023/06/16 03:05:33;;;;;;;21.30;19.50;;;14.00;99.90;;;;;;5152523;27;20038;-84
2023/06/16 03:07:59;;;;;;;19.73;17.90;;;13.90;99.90;;;;;;5151125;27;20087;-83
2023/06/16 03:10:25;;;;;;;22.23;20.33;;;13.90;99.90;;;;;;5171177;27;20146;-84
2023/06/16 03:12:51;;;;;;;22.42;19.85;;;13.90;99.90;;;;;;5170477;27;20069;-84
2023/06/16 03:15:16;;;;;;;19.63;17.83;;;13.90;99.90;;;;;;5171130;27;20607;-84
2023/06/16 03:17:43;;;;;;;18.60;17.05;;;13.90;99.90;;;;;;5151951;27;20411;-84
2023/06/16 03:20:09;;;;;;;19.85;18.15;;;13.90;99.90;;;;;;5169270;27;20034;-84
2023/06/16 03:22:35;;;;;;;21.58;19.70;;;13.90;99.90;;;;;;5152187;27;20038;-84
2023/06/16 03:25:02;;;;;;;23.95;21.75;;;14.00;99.90;;;;;;5170905;27;20627;-84
2023/06/16 03:27:30;;;;;;;20.33;18.33;;;14.00;99.90;;;;;;5170438;27;20086;-83
2023/06/16 03:29:57;;;;;;;21.80;19.92;;;14.00;99.90;;;;;;5170271;27;20037;-84
2023/06/16 03:32:23;;;;;;;22.90;20.88;;;14.00;99.90;;;;;;5177446;27;20042;-84
2023/06/16 03:34:48;;;;;;;20.48;18.73;;;14.10;99.90;;;;;;5160003;27;20030;-85
2023/06/16 03:37:15;;;;;;;22.23;20.10;;;14.00;99.90;;;;;;5153906;27;20046;-84
2023/06/16 03:39:41;;;;;;;23.85;21.85;;;14.10;99.90;;;;;;5170502;27;20046;-83
2023/06/16 03:42:07;;;;;;;21.98;19.90;;;14.10;99.90;;;;;;5170771;27;20431;-84
2023/06/16 03:44:32;;;;;;;19.67;17.98;;;14.10;99.90;;;;;;5134589;27;20472;-84
2023/06/16 03:46:58;;;;;;;21.00;18.95;;;14.20;99.90;;;;;;5151981;27;20030;-84
2023/06/16 03:49:24;;;;;;;24.73;22.63;;;14.20;99.90;;;;;;5151237;27;20070;-84
2023/06/16 03:51:49;;;;;;;23.17;21.02;;;14.20;99.90;;;;;;5170517;27;20038;-84
2023/06/16 03:54:17;;;;;;;27.23;24.83;;;14.30;99.90;;;;;;5170267;27;20125;-84
2023/06/16 03:56:43;;;;;;;21.08;19.08;;;14.40;99.90;;;;;;5151435;27;20049;-84
2023/06/16 03:59:09;;;;;;;25.52;23.23;;;14.40;99.90;;;;;;5170022;27;20597;-85
2023/06/16 04:01:36;;;;;;;22.83;20.48;;;14.50;99.90;;;;;;5151505;27;20042;-84
2023/06/16 04:04:03;;;;;;;27.90;24.92;;;14.60;99.90;;;;;;5172877;27;20069;-83
2023/06/16 04:06:29;;;;;;;30.13;27.10;;;14.80;99.90;;;;;;5156690;27;20052;-85
2023/06/16 04:08:56;;;;;;;28.40;25.95;;;14.90;99.90;;;;;;5170441;27;20054;-85
2023/06/16 04:11:22;;;;;;;23.80;21.77;;;15.00;99.90;;;;;;5129394;27;20135;-84
2023/06/16 04:13:48;;;;;;;24.55;22.00;;;15.10;99.90;;;;;;5142619;27;20037;-84
2023/06/16 04:16:14;;;;;;;18.70;16.63;;;15.20;99.90;;;;;;5123415;27;20041;-83
2023/06/16 04:18:40;;;;;;;22.55;20.60;;;15.20;99.90;;;;;;5130255;27;20046;-84
2023/06/16 04:21:05;;;;;;;19.48;17.48;;;15.30;99.90;;;;;;5127941;27;20065;-84
2023/06/16 04:23:33;;;;;;;19.63;17.05;;;15.30;99.90;;;;;;5148859;27;20069;-84
2023/06/16 04:25:58;;;;;;;20.15;17.45;;;15.30;99.90;;;;;;5148336;27;20110;-82
2023/06/16 04:28:24;;;;;;;23.23;20.92;;;15.30;99.90;;;;;;5151601;27;20081;-84
2023/06/16 04:30:50;;;;;;;24.85;22.25;;;15.30;99.90;;;;;;5150161;27;20049;-83
2023/06/16 04:33:16;;;;;;;20.90;18.25;;;15.30;99.90;;;;;;5174124;27;20057;-84
2023/06/16 04:35:42;;;;;;;21.70;19.60;;;15.30;99.90;;;;;;5150672;27;20046;-83
2023/06/16 04:38:08;;;;;;;22.05;19.05;;;15.30;99.90;;;;;;5168115;27;20039;-83
2023/06/16 04:40:36;;;;;;;25.08;21.75;;;15.30;99.90;;;;;;5154585;27;20226;-82
2023/06/16 04:43:02;;;;;;;24.60;22.08;;;15.40;99.90;;;;;;5149054;27;20035;-83
2023/06/16 04:45:28;;;;;;;28.67;21.50;;;15.40;99.90;;;;;;5155690;27;20404;-83
2023/06/16 04:47:53;;;;;;;24.40;22.10;;;15.80;99.90;;;;;;5134590;27;20070;-81
2023/06/16 04:50:19;;;;;;;22.00;19.70;;;16.00;99.90;;;;;;5134912;27;20429;-83
2023/06/16 04:52:47;;;;;;;24.02;21.60;;;16.00;99.90;;;;;;5140049;27;20058;-84
2023/06/16 04:55:16;;;;;;;22.58;20.38;;;16.00;99.90;;;;;;5176739;27;20046;-83
2023/06/16 04:57:42;;;;;;;24.73;22.13;;;16.00;99.90;;;;;;5152634;27;20053;-82
2023/06/16 05:00:09;;;;;;;25.08;22.55;;;16.20;99.90;;;;;;5151901;27;20041;-84
2023/06/16 05:02:36;;;;;;;25.15;22.45;;;16.20;99.90;;;;;;5165104;27;20526;-81
2023/06/16 05:05:03;;;;;;;23.42;21.08;;;16.30;99.90;;;;;;5166175;27;20034;-81
2023/06/16 05:07:29;;;;;;;24.42;22.13;;;16.30;99.90;;;;;;5155185;27;20225;-82
2023/06/16 05:09:55;;;;;;;27.40;24.75;;;16.30;99.90;;;;;;5174556;27;20030;-82
2023/06/16 05:12:20;;;;;;;25.58;22.10;;;16.60;99.90;;;;;;5174192;27;20742;-83
2023/06/16 05:14:46;;;;;;;31.80;28.63;;;17.70;99.90;;;;;;5174044;27;20065;-85
2023/06/16 05:17:12;;;;;;;27.15;23.17;;;19.10;99.90;;;;;;5133604;27;20401;-83
2023/06/16 05:19:37;;;;;;;23.17;20.83;;;20.40;99.90;;;;;;5155662;27;20578;-81
2023/06/16 05:22:03;;;;;;;21.48;17.98;;;21.30;99.90;;;;;;5172869;27;20091;-85
2023/06/16 05:24:29;;;;;;;18.42;16.52;;;22.40;99.90;;;;;;5175295;27;20121;-84
2023/06/16 05:26:54;;;;;;;17.80;15.73;;;23.00;99.90;;;;;;5156454;27;20110;-86
2023/06/16 05:29:20;;;;;;;18.40;16.40;;;23.60;99.90;;;;;;5173654;27;20042;-83
2023/06/16 05:31:45;;;;;;;30.23;27.27;;;24.00;99.90;;;;;;5154205;27;20699;-86
2023/06/16 05:34:11;;;;;;;26.88;24.58;;;24.60;99.90;;;;;;5154588;27;20041;-86
2023/06/16 05:36:36;;;;;;;75.03;69.97;;;25.10;99.80;;;;;;5155627;27;20066;-82
2023/06/16 05:39:03;;;;;;;443.63;412.33;;;25.50;98.40;;;;;;5155579;27;20085;-82
2023/06/16 05:41:29;;;;;;;719.85;663.75;;;25.80;98.40;;;;;;5150700;27;20045;-82
2023/06/16 05:43:55;;;;;;;816.40;749.85;;;26.20;97.50;;;;;;5153684;27;20121;-82
2023/06/16 05:46:22;;;;;;;918.60;837.80;;;26.50;96.80;;;;;;5172668;27;20114;-81
2023/06/16 05:48:47;;;;;;;1482.57;999.90;;;27.20;96.40;;;;;;5154665;27;20042;-80
2023/06/16 05:51:13;;;;;;;1999.90;999.90;;;27.40;95.70;;;;;;5172532;27;20026;-85
2023/06/16 05:53:39;;;;;;;1999.90;999.90;;;27.90;94.50;;;;;;5173322;27;20510;-91
2023/06/16 05:56:05;;;;;;;1999.90;999.90;;;28.30;94.40;;;;;;5175599;27;20026;-81
2023/06/16 05:58:35;;;;;;;1999.90;999.90;;;28.70;94.20;;;;;;5161153;27;20057;-82
2023/06/16 06:01:13;;;;;;;1999.90;999.90;;;29.20;93.60;;;;;;5150666;27;20136;-82
2023/06/16 06:03:45;;;;;;;1999.90;999.90;;;29.80;92.50;;;;;;5162247;27;20031;-80
2023/06/16 06:06:11;;;;;;;;;;;29.80;92.20;;;;;;5163642;27;20056;-89
2023/06/16 06:08:37;;;;;;;1999.90;682.47;;;30.00;91.40;;;;;;5155838;27;20388;-78
2023/06/16 06:11:06;;;;;;;1575.60;764.63;;;30.30;91.70;;;;;;5152763;27;20042;-79
2023/06/16 06:13:32;;;;;;;1999.90;999.90;;;30.40;91.80;;;;;;5150777;27;20031;-81
2023/06/16 06:15:58;;;;;;;1999.90;999.90;;;30.50;91.70;;;;;;5171530;27;20101;-77
2023/06/16 06:18:23;;;;;;;1999.90;999.90;;;30.90;90.90;;;;;;5148774;27;20505;-88
2023/06/16 06:20:49;;;;;;;1999.90;999.90;;;30.60;90.80;;;;;;5175459;27;20034;-90
2023/06/16 06:23:15;;;;;;;1999.90;999.90;;;31.00;90.40;;;;;;5160463;27;20515;-87
2023/06/16 06:25:42;;;;;;;1999.90;999.90;;;30.80;89.70;;;;;;5154552;27;20436;-87
2023/06/16 06:28:11;;;;;;;1999.90;999.90;;;30.80;90.10;;;;;;5169434;27;20445;-91
2023/06/16 06:30:36;;;;;;;1999.90;999.90;;;30.70;89.40;;;;;;5144452;27;20618;-90
2023/06/16 06:33:02;;;;;;;1999.90;999.90;;;30.90;90.30;;;;;;5147492;27;20117;-87
2023/06/16 06:35:28;;;;;;;1999.90;999.90;;;30.60;88.00;;;;;;5145893;27;20420;-86
2023/06/16 06:37:54;;;;;;;1999.90;999.90;;;31.20;88.20;;;;;;5169848;27;20034;-87
2023/06/16 06:40:19;;;;;;;1999.90;999.90;;;31.50;87.50;;;;;;5157879;27;20044;-85
2023/06/16 06:42:45;;;;;;;1999.90;999.90;;;31.50;87.60;;;;;;5146291;27;20046;-80
2023/06/16 06:45:11;;;;;;;1999.90;999.90;;;31.20;88.70;;;;;;5173125;27;20030;-86
2023/06/16 06:47:37;;;;;;;1999.90;999.90;;;31.40;88.80;;;;;;5148559;27;20033;-87
2023/06/16 06:50:03;;;;;;;1999.90;999.90;;;31.80;88.80;;;;;;5173024;27;20137;-87
2023/06/16 06:52:29;;;;;;;1999.90;999.90;;;32.00;87.40;;;;;;5151023;27;20035;-83
2023/06/16 06:54:56;;;;;;;1999.90;999.90;;;32.30;87.50;;;;;;5172194;27;20030;-86
2023/06/16 06:57:22;;;;;;;1999.90;999.90;;;32.10;86.20;;;;;;5149287;27;20065;-88
2023/06/16 06:59:48;;;;;;;1999.90;999.90;;;32.20;85.50;;;;;;5173350;27;20479;-86
2023/06/16 07:02:14;;;;;;;1999.90;999.90;;;32.00;86.30;;;;;;5170852;27;20092;-86
2023/06/16 07:04:40;;;;;;;1999.90;999.90;;;31.80;86.30;;;;;;5141623;27;20078;-84
2023/06/16 07:07:07;;;;;;;1999.90;999.90;;;32.10;86.30;;;;;;5151058;27;20135;-85
2023/06/16 07:09:33;;;;;;;1999.90;999.90;;;32.00;87.20;;;;;;5152187;27;20042;-89
2023/06/16 07:11:58;;;;;;;1999.90;999.90;;;32.30;86.40;;;;;;5152130;27;20109;-83
2023/06/16 07:14:24;;;;;;;1999.90;999.90;;;32.60;85.00;;;;;;5171584;27;20610;-86
2023/06/16 07:16:50;;;;;;;1999.90;999.90;;;32.80;85.70;;;;;;5141189;27;20180;-85
2023/06/16 07:19:15;;;;;;;1999.90;999.90;;;33.00;84.20;;;;;;5174451;27;20070;-84
2023/06/16 07:21:41;;;;;;;1999.90;999.90;;;32.60;83.30;;;;;;5153345;27;20102;-87
2023/06/16 07:24:07;;;;;;;1999.90;999.90;;;32.30;84.30;;;;;;5171236;27;20030;-85
2023/06/16 07:26:32;;;;;;;1999.90;999.90;;;32.60;84.50;;;;;;5152090;27;20038;-83
2023/06/16 07:28:59;;;;;;;1999.90;999.90;;;32.70;84.60;;;;;;5170257;27;20057;-82
2023/06/16 07:31:25;;;;;;;1999.90;999.90;;;32.50;84.50;;;;;;5135504;27;20373;-82
2023/06/16 07:33:51;;;;;;;1999.90;999.90;;;32.80;85.00;;;;;;5171207;27;20164;-82
2023/06/16 07:36:16;;;;;;;1999.90;999.90;;;33.00;83.60;;;;;;5152507;27;20118;-84
2023/06/16 07:38:42;;;;;;;1999.90;999.90;;;32.80;84.20;;;;;;5151909;27;20421;-84
2023/06/16 07:41:07;;;;;;;1999.90;999.90;;;32.50;84.60;;;;;;5150912;27;20038;-82
2023/06/16 07:43:35;;;;;;;1999.90;999.90;;;32.50;83.50;;;;;;5170543;27;20122;-82
2023/06/16 07:46:01;;;;;;;1999.90;999.90;;;32.40;83.90;;;;;;5170425;27;20159;-84
2023/06/16 07:48:26;;;;;;;1999.90;999.90;;;32.60;84.40;;;;;;5135290;27;20066;-84
2023/06/16 07:50:53;;;;;;;1999.90;999.90;;;32.90;84.30;;;;;;5171262;27;20064;-82
2023/06/16 07:53:20;;;;;;;1999.90;999.90;;;32.80;84.30;;;;;;5135343;27;20042;-84
2023/06/16 07:55:45;;;;;;;1999.90;999.90;;;32.30;82.80;;;;;;5134482;27;20069;-84
2023/06/16 07:58:11;;;;;;;1999.90;999.90;;;32.30;83.70;;;;;;5133564;27;20061;-79
2023/06/16 08:00:37;;;;;;;1999.90;999.90;;;32.40;83.30;;;;;;5132408;27;20038;-87
2023/06/16 08:03:02;;;;;;;1999.90;999.90;;;31.60;83.50;;;;;;5151940;27;20058;-88
2023/06/16 08:05:28;;;;;;;1999.90;999.90;;;31.50;83.50;;;;;;5149142;27;20106;-84
2023/06/16 08:07:53;;;;;;;1999.90;999.90;;;31.70;84.60;;;;;;5149916;27;20063;-87
2023/06/16 08:10:20;;;;;;;1999.90;999.90;;;31.90;84.20;;;;;;5152487;27;20429;-86
2023/06/16 08:12:49;;;;;;;1999.90;999.90;;;32.10;83.50;;;;;;5152456;27;20039;-85
2023/06/16 08:15:16;;;;;;;1999.90;999.90;;;31.40;83.20;;;;;;5132131;27;20167;-83
2023/06/16 08:17:43;;;;;;;1999.90;999.90;;;31.20;84.20;;;;;;5148082;27;20553;-86
2023/06/16 08:20:10;;;;;;;1999.90;999.90;;;31.40;83.70;;;;;;5140687;27;20042;-82
2023/06/16 08:22:35;;;;;;;1999.90;999.90;;;31.50;83.60;;;;;;5131444;27;20034;-82
2023/06/16 08:25:02;;;;;;;1999.90;999.90;;;31.10;82.70;;;;;;5150490;27;20488;-83
2023/06/16 08:27:28;;;;;;;1999.90;999.90;;;31.10;82.70;;;;;;5145828;27;20073;-81
2023/06/16 08:29:53;;;;;;;1999.90;999.90;;;31.10;82.20;;;;;;5150871;27;20031;-82
2023/06/16 08:32:19;;;;;;;1999.90;999.90;;;30.80;82.30;;;;;;5134414;27;20033;-82
2023/06/16 08:34:45;;;;;;;1999.90;999.90;;;30.30;82.80;;;;;;5128457;27;20551;-81
2023/06/16 08:37:11;;;;;;;1999.90;999.90;;;30.30;84.10;;;;;;5128532;27;20125;-82
2023/06/16 08:39:37;;;;;;;1999.90;999.90;;;30.30;83.80;;;;;;5133968;27;20186;-82
2023/06/16 08:42:03;;;;;;;1999.90;999.90;;;30.50;83.90;;;;;;5171264;27;20110;-84
2023/06/16 08:44:32;;;;;;;1999.90;999.90;;;30.40;84.10;;;;;;5145211;27;20480;-83
2023/06/16 08:46:58;;;;;;;1999.90;999.90;;;30.50;84.40;;;;;;5171447;27;20033;-87
2023/06/16 08:49:24;;;;;;;1999.90;999.90;;;30.70;84.10;;;;;;5143730;27;20049;-81
2023/06/16 08:51:51;;;;;;;1999.90;999.90;;;30.40;84.00;;;;;;5146002;27;20131;-82
2023/06/16 08:54:24;;;;;;;1999.90;999.90;;;30.50;84.60;;;;;;5134766;27;20098;-86
2023/06/16 08:56:51;;;;;;;1999.90;999.90;;;30.20;82.60;;;;;;5171915;27;20048;-87
2023/06/16 08:59:18;;;;;;;1999.90;999.90;;;30.20;81.40;;;;;;5145920;27;20078;-81
2023/06/16 09:01:46;;;;;;;1999.90;999.90;;;30.10;82.20;;;;;;5149761;27;20482;-85
2023/06/16 09:04:13;;;;;;;1999.90;999.90;;;29.80;79.10;;;;;;5145825;27;20031;-83
2023/06/16 09:06:47;;;;;;;1999.90;999.90;;;29.60;78.70;;;;;;5151409;27;20206;-83
2023/06/16 09:09:14;;;;;;;1999.90;999.90;;;29.50;79.60;;;;;;5159582;27;20099;-81
2023/06/16 09:11:39;;;;;;;1999.90;999.90;;;29.10;79.40;;;;;;5161780;27;20030;-83
2023/06/16 09:14:13;;;;;;;1999.90;999.90;;;28.90;78.80;;;;;;5129845;27;20037;-88
2023/06/16 09:16:39;;;;;;;1999.90;999.90;;;29.00;78.30;;;;;;5149261;27;20038;-83
2023/06/16 09:19:09;;;;;;;1999.90;999.90;;;28.60;79.30;;;;;;5165939;27;20557;-89
2023/06/16 09:21:37;;;;;;;1999.90;999.90;;;28.50;79.20;;;;;;5175126;27;20033;-85
2023/06/16 09:24:04;;;;;;;1999.90;999.90;;;28.60;79.80;;;;;;5175413;27;20046;-83
2023/06/16 09:26:38;;;;;;;1999.90;999.90;;;28.80;79.70;;;;;;5175702;27;20033;-82
2023/06/16 09:29:30;;;;;;;1999.90;999.90;;;28.70;76.40;;;;;;5177198;27;20479;-78
2023/06/16 09:32:15;;;;;;;1999.90;999.90;;;28.80;74.20;;;;;;5149771;27;20075;-84
2023/06/16 09:34:43;;;;;;;1999.90;999.90;;;28.70;77.40;;;;;;5153926;27;20058;-82
2023/06/16 09:37:12;;;;;;;1999.90;999.90;;;28.70;74.40;;;;;;5172861;27;20067;-80
2023/06/16 09:39:38;;;;;;;1999.90;999.90;;;28.50;75.50;;;;;;5139019;27;20039;-81
2023/06/16 09:42:11;;;;;;;1999.90;999.90;;;28.10;76.60;;;;;;5126517;27;20045;-85
2023/06/16 09:44:37;;;;;;;1999.90;999.90;;;28.40;76.50;;;;;;5172566;27;20077;-84
2023/06/16 09:47:02;;;;;;;1999.90;999.90;;;28.10;76.70;;;;;;5133386;27;20066;-83
2023/06/16 09:49:28;;;;;;;1999.90;999.90;;;28.40;76.80;;;;;;5161179;27;20040;-83
2023/06/16 09:51:56;;;;;;;1999.90;999.90;;;28.70;77.80;;;;;;5153839;27;20526;-83
2023/06/16 09:54:24;;;;;;;1999.90;999.90;;;28.90;77.00;;;;;;5153979;27;20034;-84
2023/06/16 09:56:50;;;;;;;1999.90;999.90;;;28.80;76.20;;;;;;5136716;27;20368;-84
2023/06/16 09:59:17;;;;;;;1999.90;999.90;;;28.70;76.20;;;;;;5136480;27;20042;-82
2023/06/16 10:01:46;;;;;;;1999.90;999.90;;;28.60;76.00;;;;;;5136654;27;20086;-89
2023/06/16 10:04:14;;;;;;;1999.90;999.90;;;28.30;74.90;;;;;;5137322;27;20065;-88
2023/06/16 10:06:57;;;;;;;1999.90;999.90;;;28.20;76.70;;;;;;5129899;27;20065;-82
2023/06/16 10:09:27;;;;;;;1999.90;999.90;;;28.40;76.30;;;;;;5155017;27;20045;-82
2023/06/16 10:11:57;;;;;;;1999.90;999.90;;;28.40;75.60;;;;;;5152594;27;20103;-81
2023/06/16 10:14:29;;;;;;;1999.90;999.90;;;28.50;74.30;;;;;;5153897;27;20508;-83
2023/06/16 10:16:58;;;;;;;1999.90;999.90;;;28.40;74.60;;;;;;5154035;27;20045;-83
2023/06/16 10:19:26;;;;;;;1999.90;999.90;;;28.30;75.10;;;;;;5153905;27;20042;-80
2023/06/16 10:21:53;;;;;;;1999.90;999.90;;;27.70;74.20;;;;;;5171819;27;20038;-82
2023/06/16 10:24:19;;;;;;;1999.90;999.90;;;27.40;74.90;;;;;;5172022;27;20087;-85
2023/06/16 10:26:46;;;;;;;1999.90;999.90;;;27.30;75.50;;;;;;5151988;27;20038;-85
2023/06/16 10:29:17;;;;;;;1999.90;999.90;;;27.60;76.30;;;;;;5179807;27;20038;-82
2023/06/16 10:31:49;;;;;;;1999.90;999.90;;;27.70;76.00;;;;;;5171519;27;20041;-81
2023/06/16 10:34:23;;;;;;;1999.90;999.90;;;27.60;75.10;;;;;;5124688;27;20035;-81
2023/06/16 10:36:51;;;;;;;1999.90;999.90;;;27.50;74.60;;;;;;5133139;27;20041;-81
2023/06/16 10:39:17;;;;;;;1999.90;999.90;;;27.60;76.00;;;;;;5132079;27;20046;-79
2023/06/16 10:41:59;;;;;;;1999.90;999.90;;;27.70;75.00;;;;;;5139315;27;20368;-79
2023/06/16 10:44:25;;;;;;;1999.90;999.90;;;27.90;74.80;;;;;;5148564;27;20036;-78
2023/06/16 10:47:09;;;;;;;1999.90;999.90;;;27.80;74.50;;;;;;5150470;27;20278;-79
2023/06/16 10:49:46;;;;;;;1999.90;999.90;;;28.00;74.20;;;;;;5159547;27;20038;-79
2023/06/16 10:52:30;;;;;;;1999.90;999.90;;;28.10;74.60;;;;;;5164700;27;20709;-79
2023/06/16 10:55:25;;;;;;;1999.90;999.90;;;28.20;75.10;;;;;;5150817;27;20111;-80
2023/06/16 10:58:20;;;;;;;1999.90;999.90;;;28.30;74.50;;;;;;5152673;27;20034;-79
2023/06/16 11:00:58;;;;;;;1999.90;999.90;;;28.20;73.10;;;;;;5151287;27;20035;-79
2023/06/16 11:03:29;;;;;;;1999.90;999.90;;;28.00;74.80;;;;;;5128087;27;20030;-77
2023/06/16 11:05:59;;;;;;;1999.90;999.90;;;27.70;72.20;;;;;;5157843;27;20050;-78
2023/06/16 11:08:27;;;;;;;1999.90;999.90;;;27.50;74.50;;;;;;5147333;27;20058;-84
2023/06/16 11:11:05;;;;;;;1999.90;999.90;;;27.60;74.30;;;;;;5171547;27;20448;-87
2023/06/16 11:13:35;;;;;;;1999.90;999.90;;;27.80;73.20;;;;;;5153145;27;20061;-87
2023/06/16 11:16:01;;;;;;;1999.90;999.90;;;27.80;73.30;;;;;;5152889;27;20101;-83
2023/06/16 11:18:28;;;;;;;1999.90;999.90;;;28.00;73.20;;;;;;5152395;27;20132;-83
2023/06/16 11:21:00;;;;;;;1999.90;999.90;;;28.00;73.50;;;;;;5152370;27;20034;-84
2023/06/16 11:23:27;;;;;;;1999.90;999.90;;;27.80;74.30;;;;;;5152478;27;20087;-85
2023/06/16 11:26:01;;;;;;;1999.90;999.90;;;27.80;73.60;;;;;;5153236;27;20041;-88
2023/06/16 11:28:27;;;;;;;1999.90;999.90;;;27.40;72.90;;;;;;5153450;27;20121;-85
2023/06/16 11:30:53;;;;;;;1999.90;999.90;;;27.20;73.70;;;;;;5135122;27;20142;-87
2023/06/16 11:33:21;;;;;;;1999.90;999.90;;;27.30;74.20;;;;;;5153083;27;20042;-86
2023/06/16 11:35:47;;;;;;;1999.90;999.90;;;27.40;73.70;;;;;;5153827;27;20148;-85
2023/06/16 11:38:14;;;;;;;1999.90;999.90;;;27.50;73.50;;;;;;5153091;27;20237;-86
2023/06/16 11:40:41;;;;;;;1999.90;999.90;;;27.50;74.30;;;;;;5170431;27;20515;-87
2023/06/16 11:43:07;;;;;;;1999.90;999.90;;;27.40;73.70;;;;;;5171422;27;20045;-84
2023/06/16 11:45:37;;;;;;;1999.90;999.90;;;27.40;73.20;;;;;;5135307;27;20574;-86
2023/06/16 11:48:05;;;;;;;1999.90;999.90;;;27.00;73.40;;;;;;5153111;27;20042;-86
2023/06/16 11:50:31;;;;;;;1999.90;999.90;;;27.00;73.50;;;;;;5172450;27;20094;-84
2023/06/16 11:52:57;;;;;;;1999.90;999.90;;;27.30;73.80;;;;;;5135451;27;20042;-86
2023/06/16 11:55:23;;;;;;;1999.90;999.90;;;27.50;73.80;;;;;;5171071;27;20049;-85
2023/06/16 11:57:49;;;;;;;1999.90;999.90;;;27.70;72.60;;;;;;5134643;27;20042;-85
2023/06/16 12:00:16;;;;;;;1999.90;999.90;;;27.90;73.50;;;;;;5152017;27;20105;-84
2023/06/16 12:02:46;;;;;;;1999.90;999.90;;;27.90;72.60;;;;;;5152399;27;20042;-86
2023/06/16 12:05:17;;;;;;;1999.90;999.90;;;28.00;72.50;;;;;;5154949;27;20030;-86
2023/06/16 12:07:43;;;;;;;1999.90;999.90;;;28.00;73.80;;;;;;5131895;27;20503;-82
2023/06/16 12:10:09;;;;;;;1999.90;999.90;;;28.00;72.90;;;;;;5151453;27;20042;-83
2023/06/16 12:12:38;;;;;;;1999.90;999.90;;;27.90;72.30;;;;;;5150953;27;20217;-84
2023/06/16 12:15:04;;;;;;;1999.90;999.90;;;27.80;72.80;;;;;;5155114;27;20150;-84
2023/06/16 12:17:33;;;;;;;1999.90;999.90;;;27.80;73.00;;;;;;5145697;27;20041;-83